Time;durP1;ratioP1;P1;durP2;ratioP2;P2;SDS_P1;SDS_P2;PMS_P1;PMS_P2;Temp;Humidity;BMP_temperature;BMP_pressure;BME280_temperature;BME280_humidity;BME280_pressure;Samples;Min_cycle;Max_cycle;Signal;HPM_P1;HPM_P2
2023/03/12 00:01:00;;;;;;;4.93;2.43;;;;;;;2.26;89.17;101163.03;5110628;28;20407;-36
2023/03/12 00:03:25;;;;;;;6.55;2.40;;;;;;;2.26;89.16;101166.53;5110373;28;20020;-36
2023/03/12 00:05:51;;;;;;;7.27;2.30;;;;;;;2.27;89.11;101160.19;5111257;28;20024;-36
2023/03/12 00:08:16;;;;;;;4.03;2.30;;;;;;;2.28;89.77;101153.84;5092022;28;20062;-35
2023/03/12 00:10:41;;;;;;;5.30;2.30;;;;;;;2.24;88.87;101147.19;5110316;28;20032;-35
2023/03/12 00:13:07;;;;;;;4.57;2.20;;;;;;;2.20;89.54;101132.53;5101724;28;20036;-35
2023/03/12 00:15:37;;;;;;;5.45;2.20;;;;;;;2.31;88.79;101148.19;5096535;28;20020;-35
2023/03/12 00:18:02;;;;;;;5.57;2.45;;;;;;;2.31;88.82;101144.69;5096533;28;20040;-35
2023/03/12 00:20:28;;;;;;;6.15;2.78;;;;;;;2.31;90.16;101144.69;5096984;28;20035;-35
2023/03/12 00:22:53;;;;;;;7.27;2.70;;;;;;;2.20;89.68;101121.88;5078233;28;20456;-35
2023/03/12 00:25:20;;;;;;;4.40;2.43;;;;;;;2.32;90.21;101133.84;5096956;28;20024;-35
2023/03/12 00:27:45;;;;;;;;;;;;;;;2.40;90.17;101126.81;5096717;28;20024;-35
2023/03/12 00:30:11;;;;;;;4.68;2.03;;;;;;;2.30;90.46;101119.84;5096545;28;19969;-35
2023/03/12 00:32:37;;;;;;;4.22;2.47;;;;;;;2.21;89.94;101112.84;5096143;28;20388;-35
2023/03/12 00:35:03;;;;;;;;;;;;;;;2.36;90.53;101120.16;5096878;28;20028;-35
2023/03/12 00:37:28;;;;;;;4.28;2.22;;;;;;;2.28;90.01;101124.50;5095761;28;20316;-35
2023/03/12 00:39:54;;;;;;;4.63;2.10;;;;;;;2.20;89.65;101105.03;5096961;28;20157;-35
2023/03/12 00:42:19;;;;;;;5.17;2.40;;;;;;;2.26;91.29;101115.00;5095998;28;20069;-35
2023/03/12 00:44:44;;;;;;;5.33;2.50;;;;;;;2.24;91.04;101112.50;5095971;28;20086;-36
2023/03/12 00:47:10;;;;;;;3.57;2.40;;;;;;;2.22;90.49;101111.00;5095994;28;20032;-35
2023/03/12 00:49:36;;;;;;;4.80;2.40;;;;;;;2.23;90.59;101113.50;5096551;28;20032;-35
2023/03/12 00:52:01;;;;;;;4.67;2.83;;;;;;;2.23;91.49;101115.34;5095558;28;20063;-35
2023/03/12 00:54:27;;;;;;;5.73;2.07;;;;;;;2.14;90.75;101084.34;5095524;28;20032;-35
2023/03/12 00:56:52;;;;;;;5.37;2.60;;;;;;;2.25;91.35;101108.03;5095551;28;20043;-35
2023/03/12 00:59:17;;;;;;;5.17;2.40;;;;;;;2.24;91.14;101098.31;5095739;28;20280;-35
2023/03/12 01:01:43;;;;;;;3.40;2.13;;;;;;;2.26;90.94;101094.50;5095935;28;20127;-35
2023/03/12 01:04:09;;;;;;;4.10;2.20;;;;;;;2.26;93.49;101093.66;5095979;28;20028;-35
2023/03/12 01:06:35;;;;;;;7.50;2.80;;;;;;;2.20;91.37;101084.50;5095636;28;20688;-35
2023/03/12 01:09:06;;;;;;;3.80;2.22;;;;;;;2.25;91.30;101084.84;5095843;28;20055;-35
2023/03/12 01:11:32;;;;;;;5.47;2.40;;;;;;;2.23;92.29;101081.47;5096350;28;20063;-35
2023/03/12 01:14:00;;;;;;;;;;;;;;;2.30;91.92;101081.66;5095642;28;20028;-35
2023/03/12 01:16:28;;;;;;;4.53;2.33;;;;;;;2.16;91.29;101066.34;5095097;28;19907;-35
2023/03/12 01:18:58;;;;;;;4.82;2.65;;;;;;;2.20;91.29;101083.69;5094951;28;20024;-35
2023/03/12 01:21:24;;;;;;;9.25;2.60;;;;;;;2.16;92.16;101071.69;5095212;28;20032;-35
2023/03/12 01:23:50;;;;;;;6.07;2.40;;;;;;;2.15;92.00;101076.19;5094590;28;20432;-35
2023/03/12 01:26:16;;;;;;;5.88;2.40;;;;;;;2.23;91.62;101081.47;5095452;28;20491;-35
2023/03/12 01:28:41;;;;;;;6.03;2.47;;;;;;;2.24;91.61;101080.47;5095156;28;20032;-35
2023/03/12 01:31:12;;;;;;;3.65;2.15;;;;;;;2.29;92.41;101082.63;5095162;28;20464;-35
2023/03/12 01:33:37;;;;;;;6.10;2.60;;;;;;;2.25;91.84;101092.00;5095324;28;20057;-35
2023/03/12 01:36:03;;;;;;;5.60;2.75;;;;;;;2.19;91.99;101072.16;5095020;28;20028;-35
2023/03/12 01:38:29;;;;;;;3.50;2.05;;;;;;;2.22;90.68;101074.50;5095705;28;20031;-35
2023/03/12 01:40:54;;;;;;;6.53;2.30;;;;;;;2.28;92.04;101081.81;5095389;28;20024;-35
2023/03/12 01:43:26;;;;;;;3.90;2.27;;;;;;;2.28;91.74;101075.63;5094624;28;20036;-35
2023/03/12 01:46:24;;;;;;;4.93;2.58;;;;;;;2.33;92.20;101063.44;5094903;28;20030;-35
2023/03/12 01:48:55;;;;;;;5.20;2.78;;;;;;;2.25;90.99;101044.81;5094797;28;20057;-35
2023/03/12 01:51:24;;;;;;;5.38;2.40;;;;;;;2.30;91.34;101044.28;5094422;28;20036;-36
2023/03/12 01:53:53;;;;;;;4.20;2.25;;;;;;;2.29;91.87;101051.47;5094607;28;20024;-35
2023/03/12 01:56:20;;;;;;;5.60;2.63;;;;;;;2.26;91.45;101046.47;5094339;28;20475;-35
2023/03/12 01:58:51;;;;;;;4.40;2.35;;;;;;;2.23;92.03;101037.97;5094579;28;20066;-35
2023/03/12 02:01:19;;;;;;;6.78;2.35;;;;;;;2.30;91.07;101047.78;5094898;28;20044;-35
2023/03/12 02:03:48;;;;;;;5.82;2.63;;;;;;;2.28;91.30;101033.75;5094812;28;20024;-35
2023/03/12 02:06:15;;;;;;;5.55;2.58;;;;;;;2.29;90.79;101042.59;5094756;28;20051;-35
2023/03/12 02:08:44;;;;;;;8.38;2.28;;;;;;;2.30;91.82;101044.28;5094110;28;20032;-35
2023/03/12 02:11:09;;;;;;;5.65;2.53;;;;;;;2.29;91.63;101040.78;5095189;28;20035;-35
2023/03/12 02:13:36;;;;;;;5.43;2.50;;;;;;;2.31;91.68;101032.59;5093992;28;20103;-35
2023/03/12 02:16:02;;;;;;;4.38;2.63;;;;;;;2.31;91.56;101022.75;5093985;28;20274;-35
2023/03/12 02:18:28;;;;;;;6.50;2.50;;;;;;;2.26;92.16;101014.44;5094277;28;20346;-35
2023/03/12 02:21:15;;;;;;;6.50;2.85;;;;;;;2.39;91.93;101024.56;5094961;28;20106;-35
2023/03/12 02:24:10;;;;;;;11.30;3.28;;;;;;;2.38;91.94;101017.56;5094389;28;20038;-35
2023/03/12 02:26:38;;;;;;;3.30;2.40;;;;;;;2.27;92.64;100994.75;5094089;28;20037;-35
2023/03/12 02:29:03;;;;;;;3.83;2.15;;;;;;;2.30;92.72;100998.94;5093698;28;20056;-35
2023/03/12 02:31:36;;;;;;;5.55;2.20;;;;;;;2.32;92.52;101003.06;5094055;28;20039;-35
2023/03/12 02:34:02;;;;;;;4.53;2.15;;;;;;;2.29;91.72;100997.25;5094522;28;20020;-35
2023/03/12 02:36:27;;;;;;;9.50;3.70;;;;;;;2.24;90.79;100989.75;5093524;28;20533;-35
2023/03/12 02:38:54;;;;;;;4.47;2.20;;;;;;;2.35;90.57;101009.91;5093943;28;20114;-35
2023/03/12 02:41:27;;;;;;;4.25;2.08;;;;;;;2.35;92.87;101001.91;5094044;28;20032;-35
2023/03/12 02:44:00;;;;;;;5.75;2.53;;;;;;;2.32;92.03;100999.56;5094642;28;20365;-35
2023/03/12 02:46:26;;;;;;;3.28;2.50;;;;;;;2.37;92.32;100999.88;5094058;28;20078;-35
2023/03/12 02:48:52;;;;;;;6.63;2.60;;;;;;;2.36;93.13;101008.06;5093814;28;20036;-35
2023/03/12 02:51:18;;;;;;;3.25;2.40;;;;;;;2.28;91.71;100995.56;5093589;28;20075;-35
2023/03/12 02:53:44;;;;;;;4.47;2.33;;;;;;;2.29;92.42;100995.44;5093799;28;20380;-35
2023/03/12 02:56:09;;;;;;;4.13;2.40;;;;;;;2.29;92.78;100983.88;5094329;28;20035;-35
2023/03/12 02:58:36;;;;;;;4.07;2.47;;;;;;;2.37;92.74;100991.88;5093655;28;20425;-35
2023/03/12 03:01:02;;;;;;;4.90;2.78;;;;;;;2.35;93.35;100982.41;5094248;28;20051;-35
2023/03/12 03:03:27;;;;;;;4.70;2.22;;;;;;;2.33;93.59;100980.72;5094007;28;20028;-35
2023/03/12 03:05:53;;;;;;;4.60;2.70;;;;;;;2.35;93.00;100979.72;5093677;28;20036;-35
2023/03/12 03:08:18;;;;;;;8.88;2.42;;;;;;;2.26;93.12;100971.75;5093589;28;20059;-35
2023/03/12 03:10:43;;;;;;;5.27;2.70;;;;;;;2.28;93.11;100975.06;5093554;28;20040;-35
2023/03/12 03:13:09;;;;;;;6.20;2.63;;;;;;;2.35;92.62;100990.41;5093238;28;20024;-35
2023/03/12 03:15:34;;;;;;;4.40;2.60;;;;;;;2.24;93.25;100972.91;5094158;28;20034;-35
2023/03/12 03:18:02;;;;;;;5.00;2.57;;;;;;;2.29;93.62;100992.75;5093537;28;20024;-35
2023/03/12 03:20:28;;;;;;;4.88;2.40;;;;;;;2.30;94.80;100988.25;5093695;28;20357;-35
2023/03/12 03:22:53;;;;;;;4.93;2.60;;;;;;;2.31;95.22;100990.75;5093443;28;20085;-35
2023/03/12 03:25:21;;;;;;;5.70;2.50;;;;;;;2.30;95.78;100991.75;5093819;28;20028;-35
2023/03/12 03:27:47;;;;;;;4.88;2.55;;;;;;;2.25;94.90;100986.09;5093362;28;20035;-35
2023/03/12 03:30:14;;;;;;;8.30;3.67;;;;;;;2.32;94.80;100984.38;5093387;28;20036;-35
2023/03/12 03:32:39;;;;;;;6.72;2.83;;;;;;;2.35;94.69;100987.72;5093349;28;20040;-35
2023/03/12 03:35:05;;;;;;;5.63;3.20;;;;;;;2.33;94.86;100990.56;5094004;28;20093;-35
2023/03/12 03:37:30;;;;;;;4.68;3.17;;;;;;;2.31;95.21;100988.06;5093302;28;20028;-35
2023/03/12 03:39:55;;;;;;;6.03;3.67;;;;;;;2.34;95.41;100984.19;5093350;28;20468;-35
2023/03/12 03:42:21;;;;;;;5.13;3.60;;;;;;;2.32;95.31;100976.38;5094010;28;20419;-35
2023/03/12 03:44:46;;;;;;;4.63;3.00;;;;;;;2.24;96.36;100959.56;5093042;28;20016;-35
2023/03/12 03:47:11;;;;;;;5.70;2.93;;;;;;;2.36;96.72;100970.72;5093344;28;20127;-35
2023/03/12 03:49:37;;;;;;;6.10;2.53;;;;;;;2.41;97.97;100963.84;5097391;28;20035;-35
2023/03/12 03:52:02;;;;;;;4.93;2.87;;;;;;;2.42;98.04;100959.31;5097005;28;20028;-35
2023/03/12 03:54:29;;;;;;;4.82;2.20;;;;;;;2.42;98.72;100960.16;5097253;28;20127;-35
2023/03/12 03:56:55;;;;;;;6.22;2.40;;;;;;;2.45;99.49;100951.81;5096879;28;20107;-35
2023/03/12 03:59:20;;;;;;;5.27;2.67;;;;;;;2.39;99.44;100938.31;5097121;28;20119;-35
2023/03/12 04:01:45;;;;;;;4.60;2.63;;;;;;;2.39;100.00;100927.63;5096718;28;20048;-35
2023/03/12 04:04:11;;;;;;;5.60;2.60;;;;;;;2.35;100.00;100921.00;5096821;28;20028;-35
2023/03/12 04:06:36;;;;;;;5.07;2.37;;;;;;;2.45;100.00;100929.63;5096536;28;20515;-35
2023/03/12 04:09:02;;;;;;;3.90;2.33;;;;;;;2.42;100.00;100920.13;5097002;28;20040;-35
2023/03/12 04:11:27;;;;;;;4.50;2.40;;;;;;;2.40;100.00;100913.31;5096627;28;20487;-35
2023/03/12 04:13:52;;;;;;;5.80;2.47;;;;;;;2.41;100.00;100912.28;5097205;28;20254;-35
2023/03/12 04:16:18;;;;;;;4.20;2.43;;;;;;;2.49;100.00;100913.09;5096586;28;20384;-35
2023/03/12 04:18:44;;;;;;;9.67;3.57;;;;;;;2.43;100.00;100902.25;5097021;28;20024;-35
2023/03/12 04:21:11;;;;;;;4.97;2.65;;;;;;;2.41;100.00;100897.09;5097040;28;20115;-35
2023/03/12 04:23:38;;;;;;;8.50;2.75;;;;;;;2.46;100.00;100907.25;5096406;28;20094;-35
2023/03/12 04:26:04;;;;;;;10.45;3.03;;;;;;;2.40;100.00;100884.78;5096385;28;20186;-35
2023/03/12 04:28:30;;;;;;;4.50;2.53;;;;;;;2.45;100.00;100889.59;5096272;28;20035;-35
2023/03/12 04:31:01;;;;;;;4.47;2.50;;;;;;;2.43;100.00;100889.75;5096621;28;20028;-35
2023/03/12 04:33:28;;;;;;;4.35;2.47;;;;;;;2.44;100.00;100877.22;5096206;28;20477;-36
2023/03/12 04:35:53;;;;;;;6.10;2.72;;;;;;;2.44;100.00;100877.22;5096510;28;20024;-36
2023/03/12 04:38:22;;;;;;;5.38;2.95;;;;;;;2.42;100.00;100869.41;5096982;28;20146;-35
2023/03/12 04:40:59;;;;;;;5.28;2.80;;;;;;;2.36;100.00;100863.97;5096070;28;20024;-35
2023/03/12 04:43:25;;;;;;;6.05;2.58;;;;;;;2.42;100.00;100876.59;5096079;28;20036;-35
2023/03/12 04:45:50;;;;;;;7.80;2.85;;;;;;;2.28;100.00;100846.97;5096626;28;20028;-35
2023/03/12 04:48:15;;;;;;;5.53;3.03;;;;;;;2.40;100.00;100883.94;5095983;28;20027;-35
2023/03/12 04:50:41;;;;;;;8.40;3.20;;;;;;;2.43;100.00;100879.06;5095747;28;20381;-35
2023/03/12 04:53:06;;;;;;;5.70;2.47;;;;;;;2.43;100.00;100864.91;5096415;28;20124;-35
2023/03/12 04:55:32;;;;;;;4.57;2.73;;;;;;;2.43;100.00;100862.22;5078302;28;20532;-35
2023/03/12 04:57:57;;;;;;;6.23;2.40;;;;;;;2.37;100.00;100854.94;5095498;28;20472;-35
2023/03/12 05:00:22;;;;;;;7.50;2.50;;;;;;;2.42;100.00;100858.72;5095450;28;20395;-35
2023/03/12 05:02:48;;;;;;;6.87;2.67;;;;;;;2.42;100.00;100864.06;5096920;28;20044;-35
2023/03/12 05:05:13;;;;;;;5.63;2.77;;;;;;;2.42;100.00;100864.06;5095668;28;20040;-35
2023/03/12 05:07:38;;;;;;;5.07;2.60;;;;;;;2.42;100.00;100855.22;5095611;28;20032;-35
2023/03/12 05:10:04;;;;;;;6.57;2.73;;;;;;;2.43;100.00;100852.38;5095874;28;20034;-35
2023/03/12 05:12:29;;;;;;;4.93;2.38;;;;;;;2.45;100.00;100841.53;5095487;28;20032;-35
2023/03/12 05:14:55;;;;;;;3.43;2.43;;;;;;;2.44;100.00;100834.53;5096054;28;20034;-35
2023/03/12 05:17:20;;;;;;;4.83;2.30;;;;;;;2.46;100.00;100830.69;5095114;28;20028;-35
2023/03/12 05:19:46;;;;;;;6.63;2.70;;;;;;;2.47;100.00;100819.00;5095687;28;20073;-35
2023/03/12 05:22:11;;;;;;;5.17;2.60;;;;;;;2.44;100.00;100827.38;5095324;28;20559;-35
2023/03/12 05:24:36;;;;;;;6.83;2.13;;;;;;;2.45;100.00;100830.88;5095557;28;20020;-35
2023/03/12 05:27:02;;;;;;;6.10;2.70;;;;;;;2.43;100.00;100830.19;5094857;28;20074;-35
2023/03/12 05:29:28;;;;;;;4.83;2.30;;;;;;;2.45;100.00;100812.19;5095394;28;20031;-35
2023/03/12 05:31:53;;;;;;;5.93;2.38;;;;;;;2.44;100.00;100814.03;5094987;28;20430;-35
2023/03/12 05:34:19;;;;;;;6.13;2.50;;;;;;;2.44;100.00;100819.38;5094992;28;20024;-35
2023/03/12 05:36:44;;;;;;;5.50;2.70;;;;;;;2.45;100.00;100812.19;5094901;28;20077;-35
2023/03/12 05:39:09;;;;;;;4.23;2.30;;;;;;;2.41;100.00;100810.88;5094556;28;20380;-35
2023/03/12 05:41:35;;;;;;;5.20;2.87;;;;;;;2.40;100.00;100806.56;5095155;28;20115;-35
2023/03/12 05:44:00;;;;;;;9.07;3.07;;;;;;;2.44;100.00;100826.50;5094635;28;20032;-35
2023/03/12 05:46:26;;;;;;;8.33;3.23;;;;;;;2.44;100.00;100829.19;5095431;28;20028;-35
2023/03/12 05:48:52;;;;;;;6.10;2.78;;;;;;;2.42;100.00;100816.03;5094449;28;20031;-35
2023/03/12 05:51:18;;;;;;;6.68;2.88;;;;;;;2.41;100.00;100813.53;5095098;28;20115;-35
2023/03/12 05:53:44;;;;;;;6.45;2.83;;;;;;;2.39;100.00;100810.22;5094642;28;20080;-35
2023/03/12 05:56:13;;;;;;;5.10;2.50;;;;;;;2.41;100.00;100811.69;5094753;28;20443;-35
2023/03/12 05:58:39;;;;;;;7.60;2.60;;;;;;;2.43;100.00;100809.66;5094804;28;20031;-35
2023/03/12 06:01:17;;;;;;;5.72;2.90;;;;;;;2.39;100.00;100807.53;5094927;28;20048;-35
2023/03/12 06:03:43;;;;;;;4.28;2.35;;;;;;;2.48;100.00;100809.13;5094540;28;20024;-35
2023/03/12 06:06:09;;;;;;;4.07;2.50;;;;;;;2.45;100.00;100810.34;5094808;28;20361;-35
2023/03/12 06:08:34;;;;;;;8.43;3.00;;;;;;;2.48;100.00;100822.47;5094719;28;20274;-35
2023/03/12 06:11:00;;;;;;;5.40;2.97;;;;;;;2.48;100.00;100814.47;5094259;28;20032;-35
2023/03/12 06:13:27;;;;;;;6.20;2.72;;;;;;;2.45;100.00;100810.34;5094361;28;20024;-35
2023/03/12 06:15:52;;;;;;;9.88;3.60;;;;;;;2.46;100.00;100828.00;5095134;28;20077;-35
2023/03/12 06:18:18;;;;;;;8.27;2.92;;;;;;;2.43;100.00;100807.00;5094857;28;20024;-35
2023/03/12 06:20:43;;;;;;;6.57;3.33;;;;;;;2.46;100.00;100821.84;5094503;28;20031;-35
2023/03/12 06:23:08;;;;;;;7.80;3.57;;;;;;;2.46;100.00;100829.84;5094229;28;20095;-35
2023/03/12 06:25:34;;;;;;;6.93;2.90;;;;;;;2.44;100.00;100813.16;5094438;28;20056;-35
2023/03/12 06:27:59;;;;;;;5.43;2.97;;;;;;;2.49;100.00;100816.13;5094939;28;20027;-35
2023/03/12 06:30:26;;;;;;;4.90;3.10;;;;;;;2.44;100.00;100807.84;5094470;28;20020;-35
2023/03/12 06:32:51;;;;;;;4.97;3.03;;;;;;;2.47;100.00;100808.31;5094273;28;20024;-35
2023/03/12 06:35:17;;;;;;;6.97;3.47;;;;;;;2.53;100.00;100801.41;5094585;28;20031;-35
2023/03/12 06:37:42;;;;;;;5.60;3.00;;;;;;;2.55;100.00;100794.91;5094811;28;20315;-35
2023/03/12 06:40:09;;;;;;;5.70;3.30;;;;;;;2.58;100.00;100799.03;5094524;28;20038;-35
2023/03/12 06:42:35;;;;;;;4.10;2.83;;;;;;;2.57;100.00;100797.38;5093531;28;20024;-35
2023/03/12 06:45:01;;;;;;;6.70;3.60;;;;;;;2.57;100.00;100794.72;5094188;28;20430;-35
2023/03/12 06:47:26;;;;;;;5.60;3.47;;;;;;;2.49;100.00;100789.44;5094436;28;20020;-35
2023/03/12 06:49:52;;;;;;;7.23;3.53;;;;;;;2.53;100.00;100788.91;5093584;28;20032;-35
2023/03/12 06:52:17;;;;;;;6.93;3.10;;;;;;;2.54;100.00;100784.41;5093716;28;20099;-35
2023/03/12 06:54:42;;;;;;;7.30;4.10;;;;;;;2.54;100.00;100779.09;5093802;28;20375;-35
2023/03/12 06:57:08;;;;;;;5.87;3.50;;;;;;;2.56;100.00;100774.38;5093974;28;20024;-35
2023/03/12 06:59:33;;;;;;;6.53;4.13;;;;;;;2.58;100.00;100775.00;5094265;28;20024;-35
2023/03/12 07:01:59;;;;;;;9.67;4.50;;;;;;;2.57;100.00;100773.38;5093918;28;20060;-35
2023/03/12 07:04:24;;;;;;;10.37;4.20;;;;;;;2.61;100.00;100761.31;5093689;28;20488;-35
2023/03/12 07:06:50;;;;;;;13.20;4.73;;;;;;;2.58;100.00;100759.00;5093336;28;20266;-35
2023/03/12 07:09:17;;;;;;;9.48;4.65;;;;;;;2.67;100.00;100768.59;5093884;28;20024;-35
2023/03/12 07:11:42;;;;;;;5.03;3.85;;;;;;;2.67;100.00;100771.25;5093252;28;20032;-35
2023/03/12 07:14:07;;;;;;;6.40;4.07;;;;;;;2.69;100.00;100765.75;5093886;28;20025;-35
2023/03/12 07:16:33;;;;;;;6.70;4.30;;;;;;;2.70;100.00;100759.41;5093238;28;20387;-35
2023/03/12 07:18:59;;;;;;;9.70;4.43;;;;;;;2.72;100.00;100763.53;5093206;28;20115;-35
2023/03/12 07:21:24;;;;;;;7.07;4.53;;;;;;;2.62;100.00;100746.94;5094299;28;20020;-35
2023/03/12 07:23:50;;;;;;;6.18;4.53;;;;;;;2.74;100.00;100772.22;5096338;28;20021;-35
2023/03/12 07:26:16;;;;;;;7.05;4.72;;;;;;;2.74;100.00;100758.03;5098364;28;20024;-35
2023/03/12 07:28:41;;;;;;;6.65;5.05;;;;;;;2.75;100.00;100778.38;5097171;28;20111;-35
2023/03/12 07:31:07;;;;;;;9.63;4.90;;;;;;;2.78;100.00;100767.31;5097797;28;20024;-35
2023/03/12 07:33:33;;;;;;;6.80;5.13;;;;;;;2.78;100.00;100768.19;5097733;28;20361;-35
2023/03/12 07:35:58;;;;;;;8.68;5.20;;;;;;;2.73;100.00;100767.03;5097963;28;20266;-35
2023/03/12 07:38:24;;;;;;;9.25;4.68;;;;;;;2.82;100.00;100769.44;5097535;28;20023;-35
2023/03/12 07:40:54;;;;;;;8.90;5.20;;;;;;;2.81;100.00;100770.47;5097470;28;20032;-35
2023/03/12 07:43:20;;;;;;;7.55;6.00;;;;;;;2.81;100.00;100772.31;5097272;28;20040;-34
2023/03/12 07:45:45;;;;;;;8.15;5.28;;;;;;;2.83;100.00;100770.28;5097744;28;20054;-34
2023/03/12 07:48:11;;;;;;;9.50;5.33;;;;;;;2.84;100.00;100769.28;5097408;28;20028;-35
2023/03/12 07:50:36;;;;;;;8.10;6.33;;;;;;;2.71;100.00;100764.56;5097091;28;20070;-35
2023/03/12 07:53:03;;;;;;;9.93;6.10;;;;;;;2.84;100.00;100770.13;5097081;28;20031;-34
2023/03/12 07:55:29;;;;;;;6.53;5.32;;;;;;;2.85;100.00;100778.94;5097229;28;20028;-35
2023/03/12 07:57:57;;;;;;;9.82;5.82;;;;;;;2.78;100.00;100768.19;5096595;28;20051;-35
2023/03/12 08:00:22;;;;;;;7.88;5.90;;;;;;;2.90;100.00;100786.41;5097123;28;20032;-35
2023/03/12 08:02:48;;;;;;;8.02;5.78;;;;;;;2.93;100.00;100780.69;5097192;28;20487;-35
2023/03/12 08:05:13;;;;;;;5.90;5.23;;;;;;;2.91;100.00;100775.53;5096802;28;20035;-35
2023/03/12 08:07:39;;;;;;;8.17;6.63;;;;;;;2.98;100.00;100773.00;5097092;28;20024;-35
2023/03/12 08:10:06;;;;;;;9.30;6.10;;;;;;;2.99;100.00;100769.31;5096459;28;20044;-35
2023/03/12 08:12:31;;;;;;;7.90;6.00;;;;;;;3.05;100.00;100768.56;5097372;28;20307;-35
2023/03/12 08:14:57;;;;;;;9.35;5.60;;;;;;;3.03;100.00;100757.25;5079360;28;20118;-36
2023/03/12 08:17:22;;;;;;;9.23;6.20;;;;;;;3.13;100.00;100760.47;5096602;28;20024;-36
2023/03/12 08:19:48;;;;;;;6.20;5.60;;;;;;;3.17;100.00;100767.06;5096902;28;20024;-36
2023/03/12 08:22:13;;;;;;;6.53;5.77;;;;;;;3.14;100.00;100758.63;5096382;28;20028;-36
2023/03/12 08:24:38;;;;;;;7.30;6.00;;;;;;;3.22;100.00;100770.06;5096759;28;20056;-36
2023/03/12 08:27:04;;;;;;;9.10;6.00;;;;;;;3.27;100.00;100767.66;5096420;28;20024;-36
2023/03/12 08:29:29;;;;;;;9.57;5.83;;;;;;;3.31;100.00;100773.44;5096160;28;20048;-36
2023/03/12 08:31:55;;;;;;;7.90;6.13;;;;;;;3.33;100.00;100777.59;5096376;28;20085;-36
2023/03/12 08:34:20;;;;;;;6.30;5.18;;;;;;;3.41;100.00;100778.50;5095863;28;20032;-36
2023/03/12 08:36:45;;;;;;;9.47;6.07;;;;;;;3.43;100.00;100776.47;5096241;28;20032;-36
2023/03/12 08:39:11;;;;;;;6.93;5.67;;;;;;;3.48;100.00;100790.13;5096734;28;20418;-36
2023/03/12 08:41:36;;;;;;;7.70;6.10;;;;;;;3.52;100.00;100780.72;5095735;28;20107;-34
2023/03/12 08:44:01;;;;;;;7.10;5.63;;;;;;;3.54;100.00;100779.50;5095784;28;20020;-34
2023/03/12 08:46:28;;;;;;;7.53;5.53;;;;;;;3.54;100.00;100784.84;5096084;28;20057;-35
2023/03/12 08:48:54;;;;;;;9.73;5.72;;;;;;;3.64;100.00;100797.94;5095941;28;20034;-35
2023/03/12 08:51:19;;;;;;;7.72;6.35;;;;;;;3.62;100.00;100781.25;5096804;28;20107;-35
2023/03/12 08:53:44;;;;;;;7.20;5.80;;;;;;;3.74;100.00;100800.31;5095872;28;20028;-35
2023/03/12 08:56:10;;;;;;;8.50;7.30;;;;;;;3.80;100.00;100788.84;5095537;28;20031;-36
2023/03/12 08:58:35;;;;;;;9.55;7.07;;;;;;;3.83;100.00;100804.53;5095469;28;20028;-35
2023/03/12 09:01:01;;;;;;;7.20;6.40;;;;;;;3.83;100.00;100792.00;5095226;28;20126;-34
2023/03/12 09:03:26;;;;;;;11.87;8.23;;;;;;;3.98;100.00;100805.34;5096525;28;20039;-34
2023/03/12 09:06:03;;;;;;;11.23;9.07;;;;;;;4.01;100.00;100791.59;5095934;28;20020;-35
2023/03/12 09:08:28;;;;;;;;;;;;;;;4.11;100.00;100796.63;5096000;28;20028;-35
2023/03/12 09:10:54;;;;;;;11.83;8.37;;;;;;;4.16;100.00;100804.09;5096355;28;19912;-36
2023/03/12 09:13:19;;;;;;;12.50;10.37;;;;;;;4.26;100.00;100804.59;5095275;28;20266;-36
2023/03/12 09:15:44;;;;;;;12.87;10.63;;;;;;;4.24;100.00;100782.53;5095445;28;20024;-36
2023/03/12 09:18:10;;;;;;;12.03;10.00;;;;;;;4.40;100.00;100806.41;5095381;28;20426;-36
2023/03/12 09:20:35;;;;;;;14.40;12.10;;;;;;;4.49;100.00;100801.72;5095892;28;20448;-36
2023/03/12 09:23:00;;;;;;;19.13;13.90;;;;;;;4.63;100.00;100792.78;5095059;28;20028;-36
2023/03/12 09:25:25;;;;;;;16.67;14.77;;;;;;;4.74;100.00;100786.91;5095261;28;20051;-36
2023/03/12 09:27:51;;;;;;;17.83;15.03;;;;;;;4.73;100.00;100768.34;5095259;28;20071;-36
2023/03/12 09:30:20;;;;;;;23.47;17.67;;;;;;;4.94;100.00;100780.88;5095528;28;20032;-36
2023/03/12 09:32:46;;;;;;;17.88;15.80;;;;;;;5.00;100.00;100788.13;5094778;28;20035;-41
2023/03/12 09:35:13;;;;;;;21.85;18.08;;;;;;;5.11;100.00;100790.25;5095094;28;20040;-34
2023/03/12 09:37:40;;;;;;;22.08;17.38;;;;;;;5.24;100.00;100795.72;5094898;28;20108;-35
2023/03/12 09:40:06;;;;;;;23.25;18.55;;;;;;;5.32;100.00;100794.69;5095204;28;20024;-35
2023/03/12 09:42:49;;;;;;;23.90;19.45;;;;;;;5.45;100.00;100793.97;5095306;28;20448;-35
2023/03/12 09:45:26;;;;;;;22.88;19.15;;;;;;;5.53;100.00;100785.75;5094840;28;20028;-35
2023/03/12 09:47:57;;;;;;;24.10;19.52;;;;;;;5.67;100.00;100806.25;5095646;28;20380;-35
2023/03/12 09:50:39;;;;;;;26.98;19.75;;;;;;;5.72;100.00;100794.94;5095306;28;20047;-35
2023/03/12 09:53:10;;;;;;;20.65;18.35;;;;;;;5.84;100.00;100810.22;5095545;28;20073;-35
2023/03/12 09:55:42;;;;;;;21.83;19.33;;;;;;;5.98;100.00;100815.69;5094368;28;20060;-35
2023/03/12 09:58:16;;;;;;;25.70;20.75;;;;;;;6.10;100.00;100819.44;5095411;28;20121;-35
2023/03/12 10:00:41;;;;;;;22.48;18.73;;;;;;;6.20;100.00;100819.91;5094531;28;20032;-35
2023/03/12 10:03:22;;;;;;;21.47;19.07;;;;;;;6.31;100.00;100810.41;5094939;28;20051;-35
2023/03/12 10:06:19;;;;;;;22.80;18.60;;;;;;;6.40;100.00;100826.13;5094477;28;20054;-35
2023/03/12 10:09:25;;;;;;;23.05;18.73;;;;;;;6.48;100.00;100817.03;5094379;28;20556;-35
2023/03/12 10:12:05;;;;;;;18.70;16.80;;;;;;;6.57;100.00;100815.81;5073210;28;20039;-35
2023/03/12 10:14:52;;;;;;;20.50;17.27;;;;;;;6.64;100.00;100829.28;5094401;28;20027;-35
2023/03/12 10:17:45;;;;;;;19.52;17.52;;;;;;;6.73;100.00;100814.56;5094589;28;20375;-35
2023/03/12 10:20:39;;;;;;;21.92;17.58;;;;;;;6.72;100.00;100799.50;5094267;28;20036;-35
2023/03/12 10:23:22;;;;;;;19.60;17.52;;;;;;;6.87;100.00;100810.84;5095050;28;20422;-35
2023/03/12 10:26:15;;;;;;;23.30;18.20;;;;;;;6.96;100.00;100808.78;5093875;28;20107;-35
2023/03/12 10:28:49;;;;;;;21.33;17.95;;;;;;;7.02;100.00;100804.44;5094752;28;20473;-35
2023/03/12 10:31:25;;;;;;;23.38;18.65;;;;;;;7.05;100.00;100806.72;5094411;28;20141;-35
2023/03/12 10:33:55;;;;;;;23.90;17.73;;;;;;;7.09;100.00;100811.47;5094039;28;20039;-35
2023/03/12 10:36:37;;;;;;;27.65;18.98;;;;;;;6.96;100.00;100780.03;5093965;28;20543;-35
2023/03/12 10:39:03;;;;;;;18.83;16.75;;;;;;;7.21;100.00;100817.84;5094595;28;20028;-35
2023/03/12 10:41:29;;;;;;;;;;;;;;;7.26;100.00;100809.16;5094882;28;20042;-36
2023/03/12 10:44:00;;;;;;;19.92;16.15;;;;;;;7.26;100.00;100798.41;5093873;28;19916;-36
2023/03/12 10:46:45;;;;;;;22.23;16.33;;;;;;;7.35;100.00;100807.06;5094378;28;20028;-36
2023/03/12 10:49:22;;;;;;;23.60;16.08;;;;;;;7.37;100.00;100802.31;5093488;28;20016;-36
2023/03/12 10:52:25;;;;;;;22.48;16.30;;;;;;;7.44;100.00;100805.81;5094626;28;20068;-35
2023/03/12 10:54:52;;;;;;;19.73;14.93;;;;;;;7.28;100.00;100768.63;5012049;28;20116;-35
2023/03/12 10:57:19;;;;;;;18.70;14.25;;;;;;;7.42;100.00;100789.91;5011450;28;20030;-35
2023/03/12 10:59:47;;;;;;;19.02;14.80;;;;;;;7.51;100.00;100806.59;5051471;28;20071;-36
2023/03/12 11:02:35;;;;;;;21.35;14.02;;;;;;;7.55;100.00;100812.41;5093596;28;20071;-36
2023/03/12 11:05:17;;;;;;;26.83;14.63;;;;;;;7.49;100.00;100806.00;5093595;28;20031;-36
2023/03/12 11:07:43;;;;;;;23.45;14.65;;;;;;;7.59;100.00;100811.78;5093889;28;20053;-36
2023/03/12 11:10:08;;;;;;;21.83;14.20;;;;;;;7.60;100.00;100809.91;5093717;28;20036;-36
2023/03/12 11:12:36;;;;;;;22.77;16.17;;;;;;;7.65;100.00;100818.16;5093216;28;20486;-36
2023/03/12 11:15:39;;;;;;;21.15;14.35;;;;;;;7.66;100.00;100812.59;5093309;28;20103;-36
2023/03/12 11:18:31;;;;;;;22.30;14.98;;;;;;;7.70;100.00;100812.97;5011962;28;20041;-35
2023/03/12 11:21:08;;;;;;;23.35;14.65;;;;;;;7.75;100.00;100821.22;5092348;28;20480;-35
2023/03/12 11:23:35;;;;;;;27.45;15.00;;;;;;;7.77;100.00;100827.25;5093762;28;20028;-35
2023/03/12 11:26:22;;;;;;;27.00;14.63;;;;;;;7.81;100.00;100823.09;5093687;28;20495;-35
2023/03/12 11:28:49;;;;;;;24.95;13.77;;;;;;;7.81;100.00;100806.09;5093322;28;20471;-35
2023/03/12 11:31:24;;;;;;;25.90;13.73;;;;;;;7.89;100.00;100822.00;5094238;28;20028;-36